Time;durP1;ratioP1;P1;durP2;ratioP2;P2;SDS_P1;SDS_P2;PMS_P1;PMS_P2;Temp;Humidity;BMP_temperature;BMP_pressure;BME280_temperature;BME280_humidity;BME280_pressure;Samples;Min_cycle;Max_cycle;Signal;HPM_P1;HPM_P2
2023/11/01 00:01:58;;;;;;;0.00;0.00;;;;;;;;;;5083574;28;20029;-59
2023/11/01 00:04:25;;;;;;;0.37;0.37;;;;;;;;;;5073368;28;20035;-59
2023/11/01 00:06:51;;;;;;;0.53;0.30;;;;;;;;;;5073170;28;20059;-60
2023/11/01 00:09:18;;;;;;;0.83;0.40;;;;;;;;;;5076052;28;20127;-59
2023/11/01 00:11:45;;;;;;;0.03;0.03;;;;;;;;;;5068035;28;20074;-59
2023/11/01 00:14:12;;;;;;;0.13;0.13;;;;;;;;;;5088499;28;20020;-59
2023/11/01 00:16:43;;;;;;;0.10;0.10;;;;;;;;;;5098056;28;20028;-59
2023/11/01 00:19:09;;;;;;;0.37;0.13;;;;;;;;;;5098109;28;20024;-60
2023/11/01 00:21:36;;;;;;;0.10;0.10;;;;;;;;;;5095109;28;20036;-60
2023/11/01 00:24:06;;;;;;;0.40;0.30;;;;;;;;;;5092857;28;20375;-59
2023/11/01 00:26:33;;;;;;;0.67;0.37;;;;;;;;;;5091781;28;20027;-59
2023/11/01 00:29:00;;;;;;;0.17;0.10;;;;;;;;;;5077200;28;20028;-59
2023/11/01 00:31:26;;;;;;;0.20;0.20;;;;;;;;;;5094116;28;20375;-59
2023/11/01 00:33:53;;;;;;;0.00;0.00;;;;;;;;;;5098096;28;20382;-59
2023/11/01 00:36:20;;;;;;;0.53;0.30;;;;;;;;;;5098163;28;20024;-59
2023/11/01 00:38:47;;;;;;;0.40;0.20;;;;;;;;;;5097973;28;20383;-59
2023/11/01 00:41:14;;;;;;;0.53;0.30;;;;;;;;;;5098131;28;20020;-60
2023/11/01 00:43:41;;;;;;;0.70;0.30;;;;;;;;;;5095433;28;20050;-59
2023/11/01 00:46:08;;;;;;;0.20;0.20;;;;;;;;;;5092680;28;20111;-60
2023/11/01 00:48:34;;;;;;;17.17;0.63;;;;;;;;;;5092929;28;20031;-59
2023/11/01 00:51:04;;;;;;;1.73;0.57;;;;;;;;;;5089205;28;20096;-59
2023/11/01 00:53:31;;;;;;;0.63;0.30;;;;;;;;;;5080966;28;20423;-59
2023/11/01 00:55:58;;;;;;;0.43;0.20;;;;;;;;;;5074553;28;20059;-59
2023/11/01 00:58:25;;;;;;;1.13;0.40;;;;;;;;;;5074475;28;20028;-59
2023/11/01 01:00:51;;;;;;;0.50;0.30;;;;;;;;;;5071943;28;20043;-59
2023/11/01 01:03:18;;;;;;;0.90;0.37;;;;;;;;;;5078970;28;20054;-59
2023/11/01 01:05:45;;;;;;;1.23;0.53;;;;;;;;;;5092957;28;20017;-60
2023/11/01 01:08:11;;;;;;;1.47;0.83;;;;;;;;;;5089547;28;20024;-59
2023/11/01 01:10:38;;;;;;;2.00;0.60;;;;;;;;;;5089623;28;20024;-59
2023/11/01 01:13:05;;;;;;;0.20;0.20;;;;;;;;;;5089335;28;20032;-59
2023/11/01 01:15:31;;;;;;;0.83;0.30;;;;;;;;;;5089941;28;20024;-59
2023/11/01 01:17:58;;;;;;;0.30;0.23;;;;;;;;;;5093803;28;20028;-59
2023/11/01 01:20:25;;;;;;;3.80;0.30;;;;;;;;;;5094453;28;20484;-59
2023/11/01 01:22:51;;;;;;;0.37;0.20;;;;;;;;;;5093941;28;20051;-59
2023/11/01 01:25:18;;;;;;;1.07;0.33;;;;;;;;;;5094441;28;20032;-59
2023/11/01 01:27:45;;;;;;;0.30;0.20;;;;;;;;;;5083587;28;20538;-59
2023/11/01 01:30:12;;;;;;;0.20;0.17;;;;;;;;;;5068809;28;20475;-59
2023/11/01 01:32:38;;;;;;;0.30;0.30;;;;;;;;;;5068248;28;20043;-59
2023/11/01 01:35:05;;;;;;;3.53;0.30;;;;;;;;;;5066997;28;20024;-60
2023/11/01 01:37:32;;;;;;;0.30;0.27;;;;;;;;;;5068240;28;20032;-60
2023/11/01 01:39:59;;;;;;;0.20;0.20;;;;;;;;;;5073126;28;20158;-59
2023/11/01 01:42:26;;;;;;;0.33;0.20;;;;;;;;;;5073305;28;20463;-59
2023/11/01 01:44:53;;;;;;;0.57;0.37;;;;;;;;;;5073098;28;20036;-58
2023/11/01 01:47:19;;;;;;;0.20;0.20;;;;;;;;;;5073278;28;20020;-59
2023/11/01 01:49:46;;;;;;;0.20;0.20;;;;;;;;;;5072968;28;20024;-59
2023/11/01 01:52:13;;;;;;;0.10;0.10;;;;;;;;;;5088227;28;20519;-59
2023/11/01 01:54:40;;;;;;;0.20;0.10;;;;;;;;;;5088259;28;20107;-59
2023/11/01 01:57:09;;;;;;;0.33;0.27;;;;;;;;;;5087978;28;20042;-59
2023/11/01 01:59:36;;;;;;;1.50;0.37;;;;;;;;;;5087763;28;20475;-59
2023/11/01 02:02:03;;;;;;;5.37;0.40;;;;;;;;;;5090595;28;20059;-59
2023/11/01 02:04:30;;;;;;;0.13;0.10;;;;;;;;;;5092805;28;20540;-59
2023/11/01 02:06:57;;;;;;;1.03;0.27;;;;;;;;;;5093099;28;20055;-59
2023/11/01 02:09:23;;;;;;;0.57;0.23;;;;;;;;;;5093109;28;20111;-59
2023/11/01 02:11:50;;;;;;;0.40;0.20;;;;;;;;;;5093066;28;20024;-59
2023/11/01 02:14:17;;;;;;;2.37;0.67;;;;;;;;;;5089372;28;20097;-59
2023/11/01 02:16:44;;;;;;;0.23;0.20;;;;;;;;;;5085672;28;20403;-59
2023/11/01 02:19:13;;;;;;;0.20;0.17;;;;;;;;;;5087469;28;20035;-59
2023/11/01 02:21:40;;;;;;;0.00;0.00;;;;;;;;;;5087838;28;20020;-58
2023/11/01 02:24:07;;;;;;;0.00;0.00;;;;;;;;;;5090393;28;20026;-58
2023/11/01 02:26:33;;;;;;;0.50;0.30;;;;;;;;;;5092735;28;20511;-59
2023/11/01 02:29:00;;;;;;;1.60;0.30;;;;;;;;;;5092560;28;20112;-59
2023/11/01 02:31:27;;;;;;;0.53;0.30;;;;;;;;;;5091580;28;20356;-59
2023/11/01 02:33:54;;;;;;;2.67;1.10;;;;;;;;;;5092593;28;20074;-59
2023/11/01 02:36:20;;;;;;;0.73;0.47;;;;;;;;;;5089330;28;20544;-59
2023/11/01 02:38:47;;;;;;;0.40;0.27;;;;;;;;;;5086991;28;20024;-59
2023/11/01 02:41:14;;;;;;;0.10;0.10;;;;;;;;;;5087288;28;20056;-58
2023/11/01 02:43:41;;;;;;;0.50;0.23;;;;;;;;;;5087292;28;20080;-59
2023/11/01 02:46:08;;;;;;;1.07;0.60;;;;;;;;;;5089006;28;20027;-59
2023/11/01 02:48:35;;;;;;;0.20;0.20;;;;;;;;;;5092528;28;20027;-58
2023/11/01 02:51:02;;;;;;;0.43;0.40;;;;;;;;;;5092229;28;20024;-59
2023/11/01 02:53:29;;;;;;;0.73;0.30;;;;;;;;;;5091943;28;20109;-59
2023/11/01 02:55:55;;;;;;;0.30;0.30;;;;;;;;;;5091792;28;20016;-58
2023/11/01 02:58:23;;;;;;;0.83;0.50;;;;;;;;;;5089901;28;20020;-59
2023/11/01 03:00:50;;;;;;;1.00;0.57;;;;;;;;;;5069220;28;20050;-59
2023/11/01 03:03:17;;;;;;;0.43;0.30;;;;;;;;;;5087008;28;20101;-59
2023/11/01 03:05:43;;;;;;;0.40;0.30;;;;;;;;;;5086598;28;20074;-59
2023/11/01 03:08:10;;;;;;;10.20;0.70;;;;;;;;;;5087817;28;20101;-59
2023/11/01 03:10:37;;;;;;;0.20;0.20;;;;;;;;;;5091912;28;20027;-59
2023/11/01 03:13:04;;;;;;;0.43;0.30;;;;;;;;;;5091251;28;20395;-59
2023/11/01 03:15:30;;;;;;;8.37;0.40;;;;;;;;;;5091700;28;20028;-58
2023/11/01 03:17:57;;;;;;;1.43;0.40;;;;;;;;;;5091330;28;20054;-59
2023/11/01 03:20:24;;;;;;;0.80;0.30;;;;;;;;;;5090775;28;20446;-59
2023/11/01 03:22:50;;;;;;;0.33;0.27;;;;;;;;;;5086707;28;20024;-59
2023/11/01 03:25:17;;;;;;;0.70;0.30;;;;;;;;;;5086530;28;20051;-59
2023/11/01 03:27:44;;;;;;;0.23;0.23;;;;;;;;;;5087056;28;20471;-59
2023/11/01 03:30:11;;;;;;;0.37;0.20;;;;;;;;;;5087282;28;20020;-59
2023/11/01 03:32:37;;;;;;;0.33;0.20;;;;;;;;;;5091132;28;20039;-59
2023/11/01 03:35:04;;;;;;;1.17;0.50;;;;;;;;;;5092170;28;20020;-59
2023/11/01 03:37:31;;;;;;;0.93;0.63;;;;;;;;;;5092037;28;20109;-58
2023/11/01 03:39:58;;;;;;;1.17;0.60;;;;;;;;;;5074213;28;20561;-59
2023/11/01 03:42:24;;;;;;;0.73;0.40;;;;;;;;;;5091760;28;20074;-58
2023/11/01 03:44:51;;;;;;;0.47;0.37;;;;;;;;;;5086227;28;20039;-59
2023/11/01 03:47:18;;;;;;;1.53;0.47;;;;;;;;;;5086826;28;20028;-58
2023/11/01 03:49:44;;;;;;;1.50;0.57;;;;;;;;;;5086719;28;20085;-59
2023/11/01 03:52:11;;;;;;;1.97;0.90;;;;;;;;;;5086389;28;20023;-58
2023/11/01 03:54:38;;;;;;;4.67;1.90;;;;;;;;;;5091406;28;20027;-59
2023/11/01 03:57:06;;;;;;;4.23;2.20;;;;;;;;;;5091797;28;20443;-58
2023/11/01 03:59:33;;;;;;;6.73;2.30;;;;;;;;;;5075639;28;20021;-59
2023/11/01 04:02:00;;;;;;;5.97;2.57;;;;;;;;;;5072651;28;20021;-59
2023/11/01 04:04:27;;;;;;;4.37;1.80;;;;;;;;;;5071569;28;20036;-58
2023/11/01 04:06:53;;;;;;;1.30;1.07;;;;;;;;;;5066544;28;20025;-59
2023/11/01 04:09:20;;;;;;;2.80;1.43;;;;;;;;;;5081583;28;20020;-58
2023/11/01 04:11:48;;;;;;;1.00;0.73;;;;;;;;;;5086322;28;20024;-58
2023/11/01 04:14:15;;;;;;;1.77;0.97;;;;;;;;;;5083187;28;20028;-59
2023/11/01 04:16:42;;;;;;;0.10;0.10;;;;;;;;;;5080137;28;20032;-58
2023/11/01 04:19:11;;;;;;;0.40;0.27;;;;;;;;;;5091562;28;20026;-58
2023/11/01 04:21:37;;;;;;;6.57;2.30;;;;;;;;;;5091909;28;20536;-58
2023/11/01 04:24:04;;;;;;;0.50;0.43;;;;;;;;;;5091540;28;20069;-58
2023/11/01 04:26:31;;;;;;;0.43;0.27;;;;;;;;;;5095294;28;20475;-58
2023/11/01 04:29:04;;;;;;;0.40;0.20;;;;;;;;;;5091008;28;20046;-59
2023/11/01 04:31:31;;;;;;;0.50;0.30;;;;;;;;;;5084489;28;20056;-59
2023/11/01 04:33:58;;;;;;;0.80;0.60;;;;;;;;;;5069895;28;20016;-58
2023/11/01 04:36:24;;;;;;;1.70;0.73;;;;;;;;;;5069838;28;20103;-60
2023/11/01 04:38:55;;;;;;;2.77;1.27;;;;;;;;;;5072837;28;20357;-58
2023/11/01 04:41:22;;;;;;;0.17;0.17;;;;;;;;;;5074734;28;20070;-58
2023/11/01 04:43:49;;;;;;;0.27;0.23;;;;;;;;;;5074932;28;20040;-58
2023/11/01 04:46:15;;;;;;;0.73;0.50;;;;;;;;;;5056455;28;20384;-58
2023/11/01 04:48:42;;;;;;;3.10;0.40;;;;;;;;;;5074921;28;20116;-58
2023/11/01 04:51:09;;;;;;;1.70;1.10;;;;;;;;;;5071407;28;20029;-59
2023/11/01 04:53:35;;;;;;;0.40;0.30;;;;;;;;;;5051517;28;20391;-57
2023/11/01 04:56:05;;;;;;;0.97;0.77;;;;;;;;;;5078311;28;20038;-58
2023/11/01 04:58:34;;;;;;;1.50;0.60;;;;;;;;;;5089081;28;20102;-56
2023/11/01 05:01:00;;;;;;;0.40;0.40;;;;;;;;;;5091664;28;20467;-57
2023/11/01 05:03:27;;;;;;;0.20;0.20;;;;;;;;;;5094048;28;20031;-58
2023/11/01 05:05:54;;;;;;;1.27;0.63;;;;;;;;;;5076059;28;20029;-57
2023/11/01 05:08:20;;;;;;;0.20;0.20;;;;;;;;;;5068346;28;20029;-57
2023/11/01 05:10:47;;;;;;;0.87;0.63;;;;;;;;;;5073484;28;20085;-57
2023/11/01 05:13:14;;;;;;;1.37;0.50;;;;;;;;;;5051784;28;20068;-57
2023/11/01 05:15:40;;;;;;;0.53;0.20;;;;;;;;;;5066901;28;20020;-58
2023/11/01 05:18:07;;;;;;;0.20;0.20;;;;;;;;;;5089158;28;20071;-58
2023/11/01 05:20:34;;;;;;;0.03;0.03;;;;;;;;;;5089443;28;20028;-57
2023/11/01 05:23:00;;;;;;;0.53;0.27;;;;;;;;;;5089253;28;20491;-57
2023/11/01 05:25:27;;;;;;;0.97;0.40;;;;;;;;;;5074056;28;20023;-57
2023/11/01 05:27:54;;;;;;;0.10;0.10;;;;;;;;;;5074319;28;20036;-57
2023/11/01 05:30:20;;;;;;;0.20;0.20;;;;;;;;;;5073940;28;20032;-58
2023/11/01 05:32:47;;;;;;;0.33;0.20;;;;;;;;;;5074048;28;20025;-57
2023/11/01 05:35:17;;;;;;;0.33;0.17;;;;;;;;;;5072102;28;20033;-58
2023/11/01 05:37:44;;;;;;;0.00;0.00;;;;;;;;;;5068810;28;20126;-57
2023/11/01 05:40:14;;;;;;;0.93;0.30;;;;;;;;;;5068627;28;20024;-57
2023/11/01 05:42:42;;;;;;;0.10;0.10;;;;;;;;;;5077517;28;20119;-57
2023/11/01 05:45:09;;;;;;;1.37;0.40;;;;;;;;;;5089705;28;20487;-57
2023/11/01 05:47:36;;;;;;;0.47;0.20;;;;;;;;;;5093955;28;20051;-57
2023/11/01 05:50:06;;;;;;;0.00;0.00;;;;;;;;;;5094034;28;20028;-57
2023/11/01 05:52:34;;;;;;;0.10;0.10;;;;;;;;;;5085565;28;20023;-57
2023/11/01 05:55:00;;;;;;;1.40;0.20;;;;;;;;;;5053557;28;20029;-57
2023/11/01 05:57:27;;;;;;;0.37;0.23;;;;;;;;;;5052253;28;20039;-57
2023/11/01 05:59:54;;;;;;;0.00;0.00;;;;;;;;;;5048307;28;20124;-57
2023/11/01 06:02:20;;;;;;;0.23;0.20;;;;;;;;;;5056300;28;20020;-57
2023/11/01 06:04:47;;;;;;;1.50;0.20;;;;;;;;;;5088509;28;20383;-58
2023/11/01 06:07:14;;;;;;;0.10;0.10;;;;;;;;;;5088615;28;20141;-57
2023/11/01 06:09:41;;;;;;;0.10;0.10;;;;;;;;;;5093558;28;20017;-58
2023/11/01 06:12:08;;;;;;;0.10;0.10;;;;;;;;;;5093763;28;20027;-57
2023/11/01 06:14:35;;;;;;;0.00;0.00;;;;;;;;;;5093683;28;20099;-57
2023/11/01 06:17:02;;;;;;;0.00;0.00;;;;;;;;;;5080946;28;20459;-57
2023/11/01 06:19:31;;;;;;;0.30;0.20;;;;;;;;;;5073067;28;20426;-57
2023/11/01 06:21:58;;;;;;;0.07;0.07;;;;;;;;;;5072437;28;20020;-57
2023/11/01 06:24:25;;;;;;;0.40;0.20;;;;;;;;;;5074610;28;20032;-57
2023/11/01 06:26:52;;;;;;;0.10;0.07;;;;;;;;;;5050403;28;20033;-57
2023/11/01 06:29:19;;;;;;;0.10;0.10;;;;;;;;;;5067752;28;20078;-57
2023/11/01 06:31:45;;;;;;;0.10;0.10;;;;;;;;;;5072554;28;20483;-57
2023/11/01 06:34:12;;;;;;;0.10;0.00;;;;;;;;;;5072540;28;20071;-58
2023/11/01 06:36:39;;;;;;;0.30;0.10;;;;;;;;;;5072854;28;20041;-57
2023/11/01 06:39:06;;;;;;;0.20;0.20;;;;;;;;;;5072651;28;20024;-57
2023/11/01 06:41:33;;;;;;;0.37;0.20;;;;;;;;;;5073748;28;20055;-57
2023/11/01 06:43:59;;;;;;;0.00;0.00;;;;;;;;;;5088361;28;20479;-57
2023/11/01 06:46:27;;;;;;;0.23;0.20;;;;;;;;;;5087802;28;20119;-57
2023/11/01 06:48:55;;;;;;;2.40;0.20;;;;;;;;;;5086935;28;20067;-57
2023/11/01 06:51:21;;;;;;;0.00;0.00;;;;;;;;;;5087435;28;20056;-58
2023/11/01 06:53:48;;;;;;;0.20;0.10;;;;;;;;;;5091400;28;20024;-57
2023/11/01 06:56:15;;;;;;;1.13;0.23;;;;;;;;;;5092330;28;20043;-57
2023/11/01 06:58:43;;;;;;;0.00;0.00;;;;;;;;;;5092421;28;20081;-57
2023/11/01 07:01:09;;;;;;;0.00;0.00;;;;;;;;;;5092384;28;20421;-57
2023/11/01 07:03:36;;;;;;;1.00;0.47;;;;;;;;;;5074528;28;20036;-57
2023/11/01 07:06:02;;;;;;;0.10;0.10;;;;;;;;;;5068274;28;20070;-58
2023/11/01 07:08:29;;;;;;;0.10;0.10;;;;;;;;;;5067423;28;20024;-58
2023/11/01 07:10:56;;;;;;;0.10;0.10;;;;;;;;;;5066968;28;20028;-57
2023/11/01 07:13:22;;;;;;;0.23;0.20;;;;;;;;;;5067308;28;20090;-57
2023/11/01 07:15:49;;;;;;;0.00;0.00;;;;;;;;;;5069697;28;20032;-57
2023/11/01 07:18:16;;;;;;;0.53;0.40;;;;;;;;;;5072180;28;20028;-58
2023/11/01 07:20:43;;;;;;;0.10;0.10;;;;;;;;;;5072161;28;20031;-57
2023/11/01 07:23:10;;;;;;;0.00;0.00;;;;;;;;;;5072166;28;20029;-57
2023/11/01 07:25:36;;;;;;;0.00;0.00;;;;;;;;;;5073256;28;20048;-57
2023/11/01 07:28:03;;;;;;;0.00;0.00;;;;;;;;;;5072054;28;20115;-57
2023/11/01 07:30:30;;;;;;;0.00;0.00;;;;;;;;;;5066917;28;20761;-57
2023/11/01 07:32:56;;;;;;;0.67;0.30;;;;;;;;;;5066876;28;20083;-57
2023/11/01 07:35:23;;;;;;;0.00;0.00;;;;;;;;;;5067040;28;20032;-58
2023/11/01 07:37:50;;;;;;;0.10;0.10;;;;;;;;;;5069035;28;20101;-57
2023/11/01 07:40:16;;;;;;;0.30;0.10;;;;;;;;;;5072043;28;20033;-57
2023/11/01 07:42:45;;;;;;;0.10;0.10;;;;;;;;;;5072024;28;20031;-57
2023/11/01 07:45:12;;;;;;;0.10;0.10;;;;;;;;;;5071537;28;20091;-57
2023/11/01 07:47:40;;;;;;;0.13;0.10;;;;;;;;;;5071314;28;20028;-57
2023/11/01 07:50:08;;;;;;;0.10;0.10;;;;;;;;;;5054187;28;20033;-57
2023/11/01 07:52:34;;;;;;;0.40;0.10;;;;;;;;;;5086468;28;20055;-57
2023/11/01 07:55:05;;;;;;;0.00;0.00;;;;;;;;;;5086773;28;20519;-57
2023/11/01 07:57:32;;;;;;;1.33;0.20;;;;;;;;;;5086557;28;20040;-58
2023/11/01 08:00:00;;;;;;;0.00;0.00;;;;;;;;;;5091132;28;20024;-57
2023/11/01 08:02:26;;;;;;;0.00;0.00;;;;;;;;;;5095424;28;20428;-57
2023/11/01 08:04:55;;;;;;;0.20;0.10;;;;;;;;;;5095723;28;20063;-57
2023/11/01 08:07:22;;;;;;;0.37;0.20;;;;;;;;;;5095762;28;20036;-57
2023/11/01 08:09:50;;;;;;;0.33;0.10;;;;;;;;;;5095935;28;20103;-57
2023/11/01 08:12:17;;;;;;;0.03;0.03;;;;;;;;;;5094153;28;20028;-57
2023/11/01 08:14:44;;;;;;;0.20;0.20;;;;;;;;;;5083548;28;20028;-57
2023/11/01 08:17:10;;;;;;;0.10;0.10;;;;;;;;;;5070289;28;20037;-57
2023/11/01 08:19:39;;;;;;;0.00;0.00;;;;;;;;;;5070236;28;20025;-58
2023/11/01 08:22:07;;;;;;;0.10;0.10;;;;;;;;;;5070678;28;20095;-57
2023/11/01 08:24:34;;;;;;;0.00;0.00;;;;;;;;;;5075130;28;20115;-57
2023/11/01 08:27:01;;;;;;;0.07;0.03;;;;;;;;;;5084511;28;20059;-57
2023/11/01 08:29:28;;;;;;;0.00;0.00;;;;;;;;;;5095706;28;20028;-57
2023/11/01 08:31:54;;;;;;;0.10;0.10;;;;;;;;;;5095641;28;20080;-57
2023/11/01 08:34:21;;;;;;;0.00;0.00;;;;;;;;;;5094446;28;20065;-57
2023/11/01 08:36:48;;;;;;;0.00;0.00;;;;;;;;;;5090109;28;20517;-57
2023/11/01 08:39:15;;;;;;;0.00;0.00;;;;;;;;;;5079041;28;20016;-57
2023/11/01 08:41:42;;;;;;;0.10;0.10;;;;;;;;;;5089933;28;20058;-57
2023/11/01 08:44:09;;;;;;;0.00;0.00;;;;;;;;;;5089843;28;20024;-58
2023/11/01 08:46:36;;;;;;;0.00;0.00;;;;;;;;;;5095261;28;20475;-58
2023/11/01 08:49:02;;;;;;;0.00;0.00;;;;;;;;;;5095198;28;20374;-58
2023/11/01 08:51:29;;;;;;;0.10;0.10;;;;;;;;;;5094682;28;20036;-57
2023/11/01 08:54:00;;;;;;;0.10;0.10;;;;;;;;;;5094980;28;20035;-57
2023/11/01 08:56:27;;;;;;;0.20;0.20;;;;;;;;;;5094349;28;20113;-57
2023/11/01 08:58:54;;;;;;;0.10;0.10;;;;;;;;;;5089358;28;20046;-57
2023/11/01 09:01:21;;;;;;;0.13;0.10;;;;;;;;;;5089760;28;20391;-57
2023/11/01 09:03:47;;;;;;;0.00;0.00;;;;;;;;;;5083372;28;20029;-57
2023/11/01 09:06:14;;;;;;;0.53;0.20;;;;;;;;;;5069304;28;20021;-57
2023/11/01 09:08:40;;;;;;;0.80;0.30;;;;;;;;;;5074073;28;20052;-57
2023/11/01 09:11:07;;;;;;;0.00;0.00;;;;;;;;;;5073804;28;20020;-57
2023/11/01 09:13:34;;;;;;;0.20;0.00;;;;;;;;;;5074418;28;20020;-57
2023/11/01 09:16:01;;;;;;;0.20;0.07;;;;;;;;;;5073655;28;20161;-57
2023/11/01 09:18:27;;;;;;;0.00;0.00;;;;;;;;;;5074349;28;20431;-57
2023/11/01 09:20:54;;;;;;;0.10;0.00;;;;;;;;;;5069501;28;20096;-57
2023/11/01 09:23:21;;;;;;;0.00;0.00;;;;;;;;;;5069095;28;20479;-57
2023/11/01 09:25:48;;;;;;;0.10;0.03;;;;;;;;;;5069081;28;20024;-57
2023/11/01 09:28:15;;;;;;;0.20;0.10;;;;;;;;;;5079016;28;20032;-57
2023/11/01 09:30:41;;;;;;;0.00;0.00;;;;;;;;;;5090990;28;20483;-57
2023/11/01 09:33:08;;;;;;;0.03;0.00;;;;;;;;;;5094029;28;20030;-58
2023/11/01 09:35:34;;;;;;;0.47;0.20;;;;;;;;;;5094151;28;20051;-57
2023/11/01 09:38:01;;;;;;;0.00;0.00;;;;;;;;;;5093897;28;20035;-57
2023/11/01 09:40:28;;;;;;;0.07;0.07;;;;;;;;;;5076012;28;20020;-57
2023/11/01 09:42:54;;;;;;;0.00;0.00;;;;;;;;;;5090248;28;20035;-57
2023/11/01 09:45:21;;;;;;;0.03;0.03;;;;;;;;;;5088713;28;20035;-57
2023/11/01 09:47:50;;;;;;;0.00;0.00;;;;;;;;;;5088763;28;20053;-57
2023/11/01 09:50:17;;;;;;;0.17;0.17;;;;;;;;;;5088788;28;20479;-57
2023/11/01 09:52:44;;;;;;;0.20;0.10;;;;;;;;;;5075392;28;20118;-57
2023/11/01 09:55:15;;;;;;;0.00;0.00;;;;;;;;;;5073808;28;20459;-57
2023/11/01 09:57:43;;;;;;;0.00;0.00;;;;;;;;;;5073602;28;20383;-57
2023/11/01 10:00:10;;;;;;;0.33;0.20;;;;;;;;;;5073358;28;20016;-57
2023/11/01 10:02:38;;;;;;;0.00;0.00;;;;;;;;;;5073251;28;20411;-58
2023/11/01 10:05:05;;;;;;;0.23;0.20;;;;;;;;;;5089774;28;20056;-57
2023/11/01 10:07:34;;;;;;;0.53;0.20;;;;;;;;;;5087889;28;20450;-57
2023/11/01 10:10:06;;;;;;;0.03;0.03;;;;;;;;;;5078941;28;20040;-57
2023/11/01 10:12:33;;;;;;;0.10;0.10;;;;;;;;;;5068070;28;20078;-57
2023/11/01 10:15:03;;;;;;;0.00;0.00;;;;;;;;;;5070837;28;20467;-57
2023/11/01 10:17:30;;;;;;;0.00;0.00;;;;;;;;;;5073014;28;20433;-58
2023/11/01 10:19:56;;;;;;;0.00;0.00;;;;;;;;;;5089173;28;20060;-57
2023/11/01 10:22:23;;;;;;;0.17;0.10;;;;;;;;;;5092376;28;20534;-57
2023/11/01 10:24:50;;;;;;;0.10;0.00;;;;;;;;;;5093182;28;20024;-58
2023/11/01 10:27:17;;;;;;;0.00;0.00;;;;;;;;;;5090163;28;20730;-58
2023/11/01 10:29:44;;;;;;;0.00;0.00;;;;;;;;;;5087913;28;20028;-57
2023/11/01 10:32:12;;;;;;;0.00;0.00;;;;;;;;;;5087976;28;20489;-57
2023/11/01 10:34:39;;;;;;;0.00;0.00;;;;;;;;;;5073177;28;20074;-57
2023/11/01 10:37:08;;;;;;;0.03;0.00;;;;;;;;;;5086829;28;20036;-57
2023/11/01 10:39:37;;;;;;;0.77;0.23;;;;;;;;;;5092820;28;20028;-57
2023/11/01 10:42:07;;;;;;;28.20;0.43;;;;;;;;;;5092728;28;20110;-57
2023/11/01 10:44:34;;;;;;;0.00;0.00;;;;;;;;;;5092722;28;20070;-57
2023/11/01 10:47:01;;;;;;;0.00;0.00;;;;;;;;;;5093046;28;20059;-57
2023/11/01 10:49:29;;;;;;;0.00;0.00;;;;;;;;;;5074863;28;20103;-57
2023/11/01 10:51:56;;;;;;;0.00;0.00;;;;;;;;;;5067477;28;20025;-57
2023/11/01 10:54:23;;;;;;;0.00;0.00;;;;;;;;;;5067283;28;20032;-57
2023/11/01 10:56:50;;;;;;;0.13;0.10;;;;;;;;;;5066986;28;20033;-57
2023/11/01 10:59:31;;;;;;;0.00;0.00;;;;;;;;;;5069735;28;20028;-57
2023/11/01 11:02:08;;;;;;;0.37;0.13;;;;;;;;;;5073332;28;20085;-57
2023/11/01 11:04:39;;;;;;;0.00;0.00;;;;;;;;;;5081193;28;20513;-57
2023/11/01 11:07:05;;;;;;;0.10;0.10;;;;;;;;;;5077947;28;20483;-57
2023/11/01 11:09:32;;;;;;;0.13;0.07;;;;;;;;;;5072478;28;20108;-57
2023/11/01 11:12:18;;;;;;;0.00;0.00;;;;;;;;;;5069746;28;20082;-57
2023/11/01 11:14:46;;;;;;;0.00;0.00;;;;;;;;;;5066811;28;20056;-57
2023/11/01 11:17:18;;;;;;;0.00;0.00;;;;;;;;;;5066625;28;20483;-57
2023/11/01 11:20:03;;;;;;;0.00;0.00;;;;;;;;;;5074267;28;20051;-57
2023/11/01 11:22:49;;;;;;;0.00;0.00;;;;;;;;;;5090632;28;20484;-57
2023/11/01 11:25:34;;;;;;;0.00;0.00;;;;;;;;;;5092368;28;20016;-57
2023/11/01 11:28:02;;;;;;;0.00;0.00;;;;;;;;;;5092414;28;20028;-57
2023/11/01 11:33:25;;;;;;;0.00;0.00;;;;;;;;;;5062760;28;20037;-57
2023/11/01 11:36:10;;;;;;;0.10;0.10;;;;;;;;;;5066681;28;20271;-57
2023/11/01 11:38:37;;;;;;;0.00;0.00;;;;;;;;;;5071160;28;20501;-57
2023/11/01 11:41:23;;;;;;;0.00;0.00;;;;;;;;;;5067678;28;20534;-57
2023/11/01 11:44:05;;;;;;;0.00;0.00;;;;;;;;;;5067799;28;20462;-57
2023/11/01 11:46:40;;;;;;;0.00;0.00;;;;;;;;;;5072011;28;20075;-57
2023/11/01 11:49:07;;;;;;;0.05;0.05;;;;;;;;;;5083125;28;20040;-57
2023/11/01 11:51:35;;;;;;;0.00;0.00;;;;;;;;;;5091580;28;20027;-57
2023/11/01 11:54:31;;;;;;;5.00;0.93;;;;;;;;;;5091296;28;20070;-57
2023/11/01 11:56:59;;;;;;;0.00;0.00;;;;;;;;;;5067513;28;20044;-57
2023/11/01 11:59:27;;;;;;;0.00;0.00;;;;;;;;;;5086691;28;20082;-57
2023/11/01 12:01:55;;;;;;;0.10;0.00;;;;;;;;;;5086638;28;20583;-57
2023/11/01 12:04:22;;;;;;;0.37;0.17;;;;;;;;;;5086453;28;20028;-57
2023/11/01 12:06:50;;;;;;;0.47;0.20;;;;;;;;;;5087553;28;20070;-57
2023/11/01 12:09:18;;;;;;;0.00;0.00;;;;;;;;;;5091800;28;20471;-57
2023/11/01 12:11:45;;;;;;;0.00;0.00;;;;;;;;;;5091856;28;20033;-57
2023/11/01 12:14:17;;;;;;;0.00;0.00;;;;;;;;;;5091632;28;20031;-57
2023/11/01 12:16:44;;;;;;;0.00;0.00;;;;;;;;;;5091578;28;20062;-57
2023/11/01 12:19:11;;;;;;;0.00;0.00;;;;;;;;;;5088524;28;20040;-57
2023/11/01 12:21:41;;;;;;;0.00;0.00;;;;;;;;;;5086114;28;20047;-57
2023/11/01 12:24:09;;;;;;;0.10;0.00;;;;;;;;;;5086633;28;20058;-57
2023/11/01 12:26:55;;;;;;;0.00;0.00;;;;;;;;;;5086168;28;20030;-57
2023/11/01 12:29:21;;;;;;;;;;;;;;;;;;5073154;28;20032;-57
2023/11/01 12:32:21;;;;;;;0.20;0.10;;;;;;;;;;5071074;28;19916;-57
2023/11/01 12:34:47;;;;;;;0.00;0.00;;;;;;;;;;5027937;28;20043;-57
2023/11/01 12:37:15;;;;;;;0.10;0.10;;;;;;;;;;5071271;28;20059;-57
2023/11/01 12:39:59;;;;;;;0.10;0.10;;;;;;;;;;5071364;28;20024;-56
2023/11/01 12:42:26;;;;;;;0.00;0.00;;;;;;;;;;5066215;28;20021;-57
2023/11/01 12:44:54;;;;;;;0.10;0.10;;;;;;;;;;5048380;28;20402;-58
2023/11/01 12:47:21;;;;;;;0.00;0.00;;;;;;;;;;5069012;28;20432;-57
2023/11/01 12:49:49;;;;;;;0.00;0.00;;;;;;;;;;5069851;28;20115;-57
2023/11/01 12:52:16;;;;;;;0.10;0.10;;;;;;;;;;5080423;28;20020;-57
2023/11/01 12:54:43;;;;;;;0.47;0.13;;;;;;;;;;5094892;28;20085;-57
2023/11/01 12:57:10;;;;;;;0.00;0.00;;;;;;;;;;5095158;28;20056;-57
2023/11/01 12:59:36;;;;;;;0.00;0.00;;;;;;;;;;5094766;28;20489;-57
2023/11/01 13:02:03;;;;;;;0.00;0.00;;;;;;;;;;5095225;28;20498;-57
2023/11/01 13:04:31;;;;;;;0.37;0.13;;;;;;;;;;5075020;28;20349;-57
2023/11/01 13:06:58;;;;;;;0.93;0.20;;;;;;;;;;5076434;28;20115;-57
2023/11/01 13:09:28;;;;;;;0.10;0.10;;;;;;;;;;5089501;28;20360;-57
2023/11/01 13:11:55;;;;;;;0.17;0.10;;;;;;;;;;5089570;28;20077;-57
2023/11/01 13:14:22;;;;;;;0.20;0.20;;;;;;;;;;5076533;28;20131;-57
2023/11/01 13:16:49;;;;;;;1.13;0.60;;;;;;;;;;5074090;28;20064;-57
2023/11/01 13:19:17;;;;;;;0.93;0.30;;;;;;;;;;5087436;28;20030;-57
2023/11/01 13:21:43;;;;;;;0.20;0.10;;;;;;;;;;5094130;28;20032;-57
2023/11/01 13:24:10;;;;;;;0.10;0.10;;;;;;;;;;5094509;28;20024;-57
2023/11/01 13:26:36;;;;;;;6.60;0.63;;;;;;;;;;5090954;28;20412;-57
2023/11/01 13:29:03;;;;;;;0.67;0.30;;;;;;;;;;5089051;28;20062;-57
2023/11/01 13:31:30;;;;;;;1.53;0.37;;;;;;;;;;5088812;28;20032;-57
2023/11/01 13:33:57;;;;;;;0.93;0.40;;;;;;;;;;5088887;28;20035;-57
2023/11/01 13:36:24;;;;;;;2.50;0.90;;;;;;;;;;5072372;28;20204;-57
2023/11/01 13:38:51;;;;;;;1.13;0.30;;;;;;;;;;5074001;28;20024;-58
2023/11/01 13:41:17;;;;;;;0.83;0.57;;;;;;;;;;5073913;28;20056;-58
2023/11/01 13:43:44;;;;;;;0.30;0.20;;;;;;;;;;5073774;28;20017;-57
2023/11/01 13:46:13;;;;;;;1.20;0.40;;;;;;;;;;5073679;28;20025;-57
2023/11/01 13:48:41;;;;;;;0.63;0.40;;;;;;;;;;5070623;28;20036;-57
2023/11/01 13:51:09;;;;;;;0.47;0.40;;;;;;;;;;5068465;28;20101;-57
2023/11/01 13:53:36;;;;;;;0.73;0.43;;;;;;;;;;5068339;28;20145;-57
2023/11/01 13:56:03;;;;;;;2.37;0.30;;;;;;;;;;5068334;28;20048;-57
2023/11/01 13:58:30;;;;;;;0.20;0.20;;;;;;;;;;5073135;28;20024;-58
2023/11/01 14:00:58;;;;;;;1.07;0.50;;;;;;;;;;5088614;28;20024;-57
2023/11/01 14:03:24;;;;;;;0.20;0.17;;;;;;;;;;5073491;28;20527;-57
2023/11/01 14:05:51;;;;;;;1.00;0.60;;;;;;;;;;5074473;28;20619;-57
2023/11/01 14:08:18;;;;;;;0.00;0.00;;;;;;;;;;5073283;28;20029;-57
2023/11/01 14:10:47;;;;;;;0.33;0.30;;;;;;;;;;5070916;28;20046;-57
2023/11/01 14:13:14;;;;;;;3.70;1.03;;;;;;;;;;5077686;28;20028;-57
2023/11/01 14:15:42;;;;;;;16.73;0.40;;;;;;;;;;5072280;28;20494;-57
2023/11/01 14:18:08;;;;;;;0.00;0.00;;;;;;;;;;5087771;28;20107;-57
2023/11/01 14:20:35;;;;;;;0.00;0.00;;;;;;;;;;5089837;28;20459;-57
2023/11/01 14:23:02;;;;;;;0.10;0.10;;;;;;;;;;5093427;28;20063;-57
2023/11/01 14:25:28;;;;;;;0.23;0.10;;;;;;;;;;5093225;28;20031;-57
2023/11/01 14:27:55;;;;;;;0.63;0.17;;;;;;;;;;5076084;28;20028;-58
2023/11/01 14:30:22;;;;;;;0.10;0.10;;;;;;;;;;5072987;28;20534;-57
2023/11/01 14:32:50;;;;;;;2.03;0.37;;;;;;;;;;5071301;28;20434;-58
2023/11/01 14:35:18;;;;;;;0.00;0.00;;;;;;;;;;5067435;28;20032;-57
2023/11/01 14:37:44;;;;;;;0.20;0.10;;;;;;;;;;5066935;28;20041;-57
2023/11/01 14:40:11;;;;;;;0.30;0.30;;;;;;;;;;5067476;28;20782;-58
2023/11/01 14:42:38;;;;;;;2.20;0.30;;;;;;;;;;5084440;28;20119;-58
2023/11/01 14:45:07;;;;;;;1.93;0.80;;;;;;;;;;5093040;28;20020;-57
2023/11/01 14:47:35;;;;;;;1.03;0.43;;;;;;;;;;5092910;28;20024;-57
2023/11/01 14:50:05;;;;;;;0.00;0.00;;;;;;;;;;5092709;28;20028;-57